sensor_id;sensor_type;location;lat;lon;timestamp;temperature;humidity
32640;DHT22;19049;52.524;11.468;2023-07-29T00:01:43;18.50;99.90
32640;DHT22;19049;52.524;11.468;2023-07-29T00:04:09;18.60;99.90
32640;DHT22;19049;52.524;11.468;2023-07-29T00:06:35;18.00;99.90
32640;DHT22;19049;52.524;11.468;2023-07-29T00:09:02;18.90;99.90
32640;DHT22;19049;52.524;11.468;2023-07-29T00:11:28;18.20;99.90
32640;DHT22;19049;52.524;11.468;2023-07-29T00:13:53;19.30;99.90
32640;DHT22;19049;52.524;11.468;2023-07-29T00:16:20;18.50;99.90
32640;DHT22;19049;52.524;11.468;2023-07-29T00:18:48;17.90;99.90
32640;DHT22;19049;52.524;11.468;2023-07-29T00:21:13;19.10;99.90
32640;DHT22;19049;52.524;11.468;2023-07-29T00:23:39;18.90;99.90
32640;DHT22;19049;52.524;11.468;2023-07-29T00:28:31;18.30;99.90
32640;DHT22;19049;52.524;11.468;2023-07-29T00:30:56;18.40;99.90
32640;DHT22;19049;52.524;11.468;2023-07-29T00:33:22;18.40;99.90
32640;DHT22;19049;52.524;11.468;2023-07-29T00:45:32;18.40;99.90
32640;DHT22;19049;52.524;11.468;2023-07-29T00:47:59;17.70;99.90
32640;DHT22;19049;52.524;11.468;2023-07-29T00:50:25;18.20;99.90
32640;DHT22;19049;52.524;11.468;2023-07-29T00:52:53;18.50;99.90
32640;DHT22;19049;52.524;11.468;2023-07-29T00:57:45;18.00;99.90
32640;DHT22;19049;52.524;11.468;2023-07-29T01:00:14;18.00;99.90
32640;DHT22;19049;52.524;11.468;2023-07-29T01:02:42;17.80;99.90
32640;DHT22;19049;52.524;11.468;2023-07-29T01:05:08;17.40;99.90
32640;DHT22;19049;52.524;11.468;2023-07-29T01:08:16;17.90;99.90
32640;DHT22;19049;52.524;11.468;2023-07-29T01:13:53;18.20;99.90
32640;DHT22;19049;52.524;11.468;2023-07-29T01:16:55;18.40;99.90
32640;DHT22;19049;52.524;11.468;2023-07-29T01:22:19;18.30;99.90
32640;DHT22;19049;52.524;11.468;2023-07-29T01:24:45;18.70;99.90
32640;DHT22;19049;52.524;11.468;2023-07-29T01:27:11;18.20;99.90
32640;DHT22;19049;52.524;11.468;2023-07-29T01:29:37;18.20;99.90
32640;DHT22;19049;52.524;11.468;2023-07-29T01:32:17;17.00;99.90
32640;DHT22;19049;52.524;11.468;2023-07-29T01:35:00;18.20;99.90
32640;DHT22;19049;52.524;11.468;2023-07-29T01:37:31;18.30;99.90
32640;DHT22;19049;52.524;11.468;2023-07-29T01:39:59;17.90;99.90
32640;DHT22;19049;52.524;11.468;2023-07-29T01:42:26;16.70;99.90
32640;DHT22;19049;52.524;11.468;2023-07-29T01:44:52;17.40;99.90
32640;DHT22;19049;52.524;11.468;2023-07-29T01:47:18;17.60;99.90
32640;DHT22;19049;52.524;11.468;2023-07-29T01:49:43;17.60;99.90
32640;DHT22;19049;52.524;11.468;2023-07-29T01:52:09;17.60;99.90
32640;DHT22;19049;52.524;11.468;2023-07-29T01:54:35;17.60;99.90
32640;DHT22;19049;52.524;11.468;2023-07-29T01:57:00;17.60;99.90
32640;DHT22;19049;52.524;11.468;2023-07-29T01:59:26;17.50;99.90
32640;DHT22;19049;52.524;11.468;2023-07-29T02:01:52;17.50;99.90
32640;DHT22;19049;52.524;11.468;2023-07-29T02:04:18;17.50;99.90
32640;DHT22;19049;52.524;11.468;2023-07-29T02:06:43;17.60;99.90
32640;DHT22;19049;52.524;11.468;2023-07-29T02:09:09;17.50;99.90
32640;DHT22;19049;52.524;11.468;2023-07-29T02:11:35;17.60;99.90
32640;DHT22;19049;52.524;11.468;2023-07-29T02:14:00;17.60;99.90
32640;DHT22;19049;52.524;11.468;2023-07-29T02:16:26;17.60;99.90
32640;DHT22;19049;52.524;11.468;2023-07-29T02:18:52;17.70;99.90
32640;DHT22;19049;52.524;11.468;2023-07-29T02:21:17;17.70;99.90
32640;DHT22;19049;52.524;11.468;2023-07-29T02:23:43;17.70;99.90
32640;DHT22;19049;52.524;11.468;2023-07-29T02:26:09;18.50;99.90
32640;DHT22;19049;52.524;11.468;2023-07-29T02:28:34;17.80;99.90
32640;DHT22;19049;52.524;11.468;2023-07-29T02:31:17;18.00;99.90
32640;DHT22;19049;52.524;11.468;2023-07-29T02:33:43;18.40;99.90
32640;DHT22;19049;52.524;11.468;2023-07-29T02:36:09;17.80;99.90
32640;DHT22;19049;52.524;11.468;2023-07-29T02:38:34;17.50;99.90
32640;DHT22;19049;52.524;11.468;2023-07-29T02:41:00;17.70;99.90
32640;DHT22;19049;52.524;11.468;2023-07-29T02:43:26;18.40;99.90
32640;DHT22;19049;52.524;11.468;2023-07-29T02:45:51;17.60;99.90
32640;DHT22;19049;52.524;11.468;2023-07-29T02:48:17;17.30;99.90
32640;DHT22;19049;52.524;11.468;2023-07-29T02:50:43;16.60;99.90
32640;DHT22;19049;52.524;11.468;2023-07-29T02:53:08;17.50;99.90
32640;DHT22;19049;52.524;11.468;2023-07-29T03:00:26;17.30;99.90
32640;DHT22;19049;52.524;11.468;2023-07-29T03:05:18;17.00;99.90
32640;DHT22;19049;52.524;11.468;2023-07-29T03:10:10;16.20;99.90
32640;DHT22;19049;52.524;11.468;2023-07-29T03:15:03;16.80;99.90
32640;DHT22;19049;52.524;11.468;2023-07-29T03:17:28;16.80;99.90
32640;DHT22;19049;52.524;11.468;2023-07-29T03:19:54;16.80;99.90
32640;DHT22;19049;52.524;11.468;2023-07-29T03:24:46;16.90;99.90
32640;DHT22;19049;52.524;11.468;2023-07-29T03:29:38;16.30;99.90
32640;DHT22;19049;52.524;11.468;2023-07-29T03:32:04;16.60;99.90
32640;DHT22;19049;52.524;11.468;2023-07-29T03:34:30;16.60;99.90
32640;DHT22;19049;52.524;11.468;2023-07-29T03:41:48;17.40;99.90
32640;DHT22;19049;52.524;11.468;2023-07-29T03:46:40;15.50;99.90
32640;DHT22;19049;52.524;11.468;2023-07-29T03:51:31;16.70;99.90
32640;DHT22;19049;52.524;11.468;2023-07-29T03:56:23;16.80;99.90
32640;DHT22;19049;52.524;11.468;2023-07-29T03:58:49;16.80;99.90
32640;DHT22;19049;52.524;11.468;2023-07-29T04:03:41;16.10;99.90
32640;DHT22;19049;52.524;11.468;2023-07-29T04:08:33;16.40;99.90
32640;DHT22;19049;52.524;11.468;2023-07-29T04:18:16;16.20;99.90
32640;DHT22;19049;52.524;11.468;2023-07-29T04:23:08;17.20;99.90
32640;DHT22;19049;52.524;11.468;2023-07-29T04:28:00;17.50;99.90
32640;DHT22;19049;52.524;11.468;2023-07-29T04:30:26;17.30;99.90
32640;DHT22;19049;52.524;11.468;2023-07-29T04:37:44;17.80;99.90
32640;DHT22;19049;52.524;11.468;2023-07-29T04:40:10;17.70;99.90
32640;DHT22;19049;52.524;11.468;2023-07-29T04:42:36;18.10;99.90
32640;DHT22;19049;52.524;11.468;2023-07-29T04:45:02;18.30;99.90
32640;DHT22;19049;52.524;11.468;2023-07-29T04:47:28;18.40;99.90
32640;DHT22;19049;52.524;11.468;2023-07-29T04:49:54;18.40;99.90
32640;DHT22;19049;52.524;11.468;2023-07-29T04:52:19;18.50;99.90
32640;DHT22;19049;52.524;11.468;2023-07-29T04:57:12;18.60;99.90
32640;DHT22;19049;52.524;11.468;2023-07-29T04:59:37;19.70;99.90
32640;DHT22;19049;52.524;11.468;2023-07-29T05:02:03;19.10;99.90
32640;DHT22;19049;52.524;11.468;2023-07-29T05:06:55;19.00;99.90
32640;DHT22;19049;52.524;11.468;2023-07-29T05:09:20;19.80;99.90
32640;DHT22;19049;52.524;11.468;2023-07-29T05:11:46;20.10;99.90
32640;DHT22;19049;52.524;11.468;2023-07-29T05:14:17;20.30;99.90
32640;DHT22;19049;52.524;11.468;2023-07-29T05:16:43;20.60;99.90
32640;DHT22;19049;52.524;11.468;2023-07-29T05:21:36;21.80;99.90
32640;DHT22;19049;52.524;11.468;2023-07-29T05:24:02;21.30;99.90
32640;DHT22;19049;52.524;11.468;2023-07-29T05:26:28;21.70;99.90
32640;DHT22;19049;52.524;11.468;2023-07-29T05:28:53;21.80;99.90
32640;DHT22;19049;52.524;11.468;2023-07-29T05:31:19;21.70;99.90
32640;DHT22;19049;52.524;11.468;2023-07-29T05:33:45;21.90;99.90
32640;DHT22;19049;52.524;11.468;2023-07-29T05:36:10;21.80;99.90
32640;DHT22;19049;52.524;11.468;2023-07-29T05:38:36;22.00;99.90
32640;DHT22;19049;52.524;11.468;2023-07-29T05:41:02;21.80;99.90
32640;DHT22;19049;52.524;11.468;2023-07-29T05:43:27;21.90;99.90
32640;DHT22;19049;52.524;11.468;2023-07-29T05:45:53;21.90;99.90
32640;DHT22;19049;52.524;11.468;2023-07-29T05:48:21;21.90;99.90
32640;DHT22;19049;52.524;11.468;2023-07-29T05:50:47;21.90;99.90
32640;DHT22;19049;52.524;11.468;2023-07-29T05:53:14;21.90;99.90
32640;DHT22;19049;52.524;11.468;2023-07-29T05:55:40;22.00;99.90
32640;DHT22;19049;52.524;11.468;2023-07-29T05:58:05;21.90;99.90
32640;DHT22;19049;52.524;11.468;2023-07-29T06:00:31;22.00;99.90
32640;DHT22;19049;52.524;11.468;2023-07-29T06:02:57;22.10;99.90
32640;DHT22;19049;52.524;11.468;2023-07-29T06:05:23;22.00;99.90
32640;DHT22;19049;52.524;11.468;2023-07-29T06:07:48;22.30;99.90
32640;DHT22;19049;52.524;11.468;2023-07-29T06:10:15;22.40;99.90
32640;DHT22;19049;52.524;11.468;2023-07-29T06:12:45;22.40;99.90
32640;DHT22;19049;52.524;11.468;2023-07-29T06:17:38;22.20;99.90
32640;DHT22;19049;52.524;11.468;2023-07-29T06:20:04;22.90;99.90
32640;DHT22;19049;52.524;11.468;2023-07-29T06:22:31;23.20;99.90
32640;DHT22;19049;52.524;11.468;2023-07-29T06:24:57;22.90;99.90
32640;DHT22;19049;52.524;11.468;2023-07-29T06:27:23;23.10;99.90
32640;DHT22;19049;52.524;11.468;2023-07-29T06:29:50;23.10;99.90
32640;DHT22;19049;52.524;11.468;2023-07-29T06:32:15;23.10;99.90
32640;DHT22;19049;52.524;11.468;2023-07-29T06:34:41;22.70;99.90
32640;DHT22;19049;52.524;11.468;2023-07-29T06:37:07;23.40;99.90
32640;DHT22;19049;52.524;11.468;2023-07-29T06:41:58;23.30;99.90
32640;DHT22;19049;52.524;11.468;2023-07-29T06:46:50;24.20;99.90
32640;DHT22;19049;52.524;11.468;2023-07-29T06:51:41;24.90;99.90
32640;DHT22;19049;52.524;11.468;2023-07-29T06:56:33;25.20;99.90
32640;DHT22;19049;52.524;11.468;2023-07-29T06:58:59;24.60;99.90
32640;DHT22;19049;52.524;11.468;2023-07-29T07:06:21;25.10;99.90
32640;DHT22;19049;52.524;11.468;2023-07-29T07:08:47;24.70;99.90
32640;DHT22;19049;52.524;11.468;2023-07-29T07:11:13;24.40;99.90
32640;DHT22;19049;52.524;11.468;2023-07-29T07:20:56;24.10;99.90
32640;DHT22;19049;52.524;11.468;2023-07-29T07:25:48;24.00;99.90
32640;DHT22;19049;52.524;11.468;2023-07-29T07:30:40;24.70;99.90
32640;DHT22;19049;52.524;11.468;2023-07-29T07:33:09;24.10;99.90
32640;DHT22;19049;52.524;11.468;2023-07-29T07:35:35;23.80;99.90
32640;DHT22;19049;52.524;11.468;2023-07-29T07:38:00;24.30;99.90
32640;DHT22;19049;52.524;11.468;2023-07-29T07:45:21;23.20;99.90
32640;DHT22;19049;52.524;11.468;2023-07-29T07:47:46;23.20;99.90
32640;DHT22;19049;52.524;11.468;2023-07-29T07:55:05;23.30;99.90
32640;DHT22;19049;52.524;11.468;2023-07-29T07:59:57;22.40;99.90
32640;DHT22;19049;52.524;11.468;2023-07-29T08:02:23;23.10;99.90
32640;DHT22;19049;52.524;11.468;2023-07-29T08:04:49;22.60;99.90
32640;DHT22;19049;52.524;11.468;2023-07-29T08:07:14;21.60;99.90
32640;DHT22;19049;52.524;11.468;2023-07-29T08:09:40;22.20;99.90
32640;DHT22;19049;52.524;11.468;2023-07-29T08:14:32;21.80;99.90
32640;DHT22;19049;52.524;11.468;2023-07-29T08:16:58;23.00;99.90
32640;DHT22;19049;52.524;11.468;2023-07-29T08:19:24;22.40;99.90
32640;DHT22;19049;52.524;11.468;2023-07-29T08:21:49;22.30;99.90
32640;DHT22;19049;52.524;11.468;2023-07-29T08:24:15;22.20;99.90
32640;DHT22;19049;52.524;11.468;2023-07-29T08:29:06;22.10;99.90
32640;DHT22;19049;52.524;11.468;2023-07-29T08:33:59;22.00;99.90
32640;DHT22;19049;52.524;11.468;2023-07-29T08:36:26;21.90;99.90
32640;DHT22;19049;52.524;11.468;2023-07-29T08:38:51;21.90;99.90
32640;DHT22;19049;52.524;11.468;2023-07-29T08:41:21;21.80;99.90
32640;DHT22;19049;52.524;11.468;2023-07-29T08:46:26;21.80;99.90
32640;DHT22;19049;52.524;11.468;2023-07-29T08:48:52;21.70;99.90
32640;DHT22;19049;52.524;11.468;2023-07-29T08:51:19;21.60;99.90
32640;DHT22;19049;52.524;11.468;2023-07-29T08:53:47;21.60;99.90
32640;DHT22;19049;52.524;11.468;2023-07-29T08:56:13;21.50;99.90
32640;DHT22;19049;52.524;11.468;2023-07-29T08:58:39;21.60;99.90
32640;DHT22;19049;52.524;11.468;2023-07-29T09:01:06;21.70;99.90
32640;DHT22;19049;52.524;11.468;2023-07-29T09:03:32;21.80;99.90
32640;DHT22;19049;52.524;11.468;2023-07-29T09:05:58;22.10;99.90
32640;DHT22;19049;52.524;11.468;2023-07-29T09:08:26;21.90;99.90
32640;DHT22;19049;52.524;11.468;2023-07-29T09:10:53;22.00;99.90
32640;DHT22;19049;52.524;11.468;2023-07-29T09:13:19;22.30;99.90
32640;DHT22;19049;52.524;11.468;2023-07-29T09:15:45;22.00;99.90
32640;DHT22;19049;52.524;11.468;2023-07-29T09:18:15;22.10;99.90
32640;DHT22;19049;52.524;11.468;2023-07-29T09:20:42;22.00;99.90
32640;DHT22;19049;52.524;11.468;2023-07-29T09:23:09;22.60;99.90
32640;DHT22;19049;52.524;11.468;2023-07-29T09:25:35;23.30;99.90
32640;DHT22;19049;52.524;11.468;2023-07-29T09:28:11;22.30;99.90
32640;DHT22;19049;52.524;11.468;2023-07-29T09:30:42;22.80;99.90
32640;DHT22;19049;52.524;11.468;2023-07-29T09:33:08;22.90;99.90
32640;DHT22;19049;52.524;11.468;2023-07-29T09:35:36;23.10;99.90
32640;DHT22;19049;52.524;11.468;2023-07-29T09:38:02;23.10;99.90
32640;DHT22;19049;52.524;11.468;2023-07-29T09:40:37;23.20;99.90
32640;DHT22;19049;52.524;11.468;2023-07-29T09:43:03;23.20;99.90
32640;DHT22;19049;52.524;11.468;2023-07-29T09:45:29;23.10;99.90
32640;DHT22;19049;52.524;11.468;2023-07-29T09:47:57;23.30;99.90
32640;DHT22;19049;52.524;11.468;2023-07-29T09:50:24;23.40;99.90
32640;DHT22;19049;52.524;11.468;2023-07-29T09:52:51;23.50;99.90
32640;DHT22;19049;52.524;11.468;2023-07-29T09:55:22;23.40;99.90
32640;DHT22;19049;52.524;11.468;2023-07-29T09:57:56;23.50;99.90
32640;DHT22;19049;52.524;11.468;2023-07-29T10:00:22;23.50;99.90
32640;DHT22;19049;52.524;11.468;2023-07-29T10:02:48;23.60;99.90
32640;DHT22;19049;52.524;11.468;2023-07-29T10:05:15;23.60;99.90
32640;DHT22;19049;52.524;11.468;2023-07-29T10:07:40;23.80;99.90
32640;DHT22;19049;52.524;11.468;2023-07-29T10:10:09;23.70;99.90
32640;DHT22;19049;52.524;11.468;2023-07-29T10:12:35;23.20;99.90
32640;DHT22;19049;52.524;11.468;2023-07-29T10:15:05;24.50;99.90
32640;DHT22;19049;52.524;11.468;2023-07-29T10:17:36;23.90;99.90
32640;DHT22;19049;52.524;11.468;2023-07-29T10:20:04;24.00;99.90
32640;DHT22;19049;52.524;11.468;2023-07-29T10:22:36;24.40;99.90
32640;DHT22;19049;52.524;11.468;2023-07-29T10:25:22;23.90;99.90
32640;DHT22;19049;52.524;11.468;2023-07-29T10:27:53;24.30;99.90
32640;DHT22;19049;52.524;11.468;2023-07-29T10:30:20;24.10;99.90
32640;DHT22;19049;52.524;11.468;2023-07-29T10:32:48;24.20;99.90
32640;DHT22;19049;52.524;11.468;2023-07-29T10:35:15;24.20;99.90
32640;DHT22;19049;52.524;11.468;2023-07-29T10:37:41;24.30;99.90
32640;DHT22;19049;52.524;11.468;2023-07-29T10:40:09;24.30;99.90
32640;DHT22;19049;52.524;11.468;2023-07-29T10:42:36;24.30;99.90
32640;DHT22;19049;52.524;11.468;2023-07-29T10:45:19;24.30;99.90
32640;DHT22;19049;52.524;11.468;2023-07-29T10:47:45;24.40;99.90
32640;DHT22;19049;52.524;11.468;2023-07-29T10:50:21;24.50;99.90
32640;DHT22;19049;52.524;11.468;2023-07-29T10:52:52;24.60;99.90
32640;DHT22;19049;52.524;11.468;2023-07-29T10:55:34;25.40;99.90
32640;DHT22;19049;52.524;11.468;2023-07-29T10:58:13;25.40;99.90
32640;DHT22;19049;52.524;11.468;2023-07-29T11:00:42;25.40;99.90
32640;DHT22;19049;52.524;11.468;2023-07-29T11:03:08;26.00;99.90
32640;DHT22;19049;52.524;11.468;2023-07-29T11:05:51;25.40;99.90
32640;DHT22;19049;52.524;11.468;2023-07-29T11:08:18;25.00;99.90
32640;DHT22;19049;52.524;11.468;2023-07-29T11:13:10;25.70;99.90
32640;DHT22;19049;52.524;11.468;2023-07-29T11:15:39;25.20;99.90
32640;DHT22;19049;52.524;11.468;2023-07-29T11:18:05;25.70;99.90
32640;DHT22;19049;52.524;11.468;2023-07-29T11:20:34;26.50;99.90
32640;DHT22;19049;52.524;11.468;2023-07-29T11:23:02;26.20;99.90
32640;DHT22;19049;52.524;11.468;2023-07-29T11:25:29;25.10;99.90
32640;DHT22;19049;52.524;11.468;2023-07-29T11:27:57;25.80;99.90
32640;DHT22;19049;52.524;11.468;2023-07-29T11:30:24;25.70;99.90
32640;DHT22;19049;52.524;11.468;2023-07-29T11:32:54;25.60;99.90
32640;DHT22;19049;52.524;11.468;2023-07-29T11:35:21;25.60;99.90
32640;DHT22;19049;52.524;11.468;2023-07-29T11:37:51;27.40;99.90
32640;DHT22;19049;52.524;11.468;2023-07-29T11:40:19;26.40;99.90
32640;DHT22;19049;52.524;11.468;2023-07-29T11:42:46;27.00;99.90
32640;DHT22;19049;52.524;11.468;2023-07-29T11:45:13;27.50;99.90
32640;DHT22;19049;52.524;11.468;2023-07-29T11:47:39;27.10;99.90
32640;DHT22;19049;52.524;11.468;2023-07-29T11:50:09;27.30;99.90
32640;DHT22;19049;52.524;11.468;2023-07-29T11:52:36;27.30;99.90
32640;DHT22;19049;52.524;11.468;2023-07-29T11:55:03;27.30;99.90
32640;DHT22;19049;52.524;11.468;2023-07-29T11:57:33;27.30;99.90
32640;DHT22;19049;52.524;11.468;2023-07-29T12:00:05;27.10;99.90
32640;DHT22;19049;52.524;11.468;2023-07-29T12:02:32;27.00;99.90
32640;DHT22;19049;52.524;11.468;2023-07-29T12:04:59;26.90;99.90
32640;DHT22;19049;52.524;11.468;2023-07-29T12:07:25;26.90;99.90
32640;DHT22;19049;52.524;11.468;2023-07-29T12:09:51;26.90;99.90
32640;DHT22;19049;52.524;11.468;2023-07-29T12:12:17;26.90;99.90
32640;DHT22;19049;52.524;11.468;2023-07-29T12:14:46;26.90;99.90
32640;DHT22;19049;52.524;11.468;2023-07-29T12:17:12;27.00;99.90
32640;DHT22;19049;52.524;11.468;2023-07-29T12:19:39;27.10;99.90
32640;DHT22;19049;52.524;11.468;2023-07-29T12:22:07;27.10;99.90
32640;DHT22;19049;52.524;11.468;2023-07-29T12:24:34;27.10;99.90
32640;DHT22;19049;52.524;11.468;2023-07-29T12:27:01;26.90;99.90
32640;DHT22;19049;52.524;11.468;2023-07-29T12:29:27;26.50;99.90
32640;DHT22;19049;52.524;11.468;2023-07-29T12:32:03;24.90;99.90
32640;DHT22;19049;52.524;11.468;2023-07-29T12:34:30;24.90;99.90
32640;DHT22;19049;52.524;11.468;2023-07-29T12:36:58;24.00;99.90
32640;DHT22;19049;52.524;11.468;2023-07-29T12:39:28;23.90;99.90
32640;DHT22;19049;52.524;11.468;2023-07-29T12:41:56;23.00;99.90
32640;DHT22;19049;52.524;11.468;2023-07-29T12:44:29;23.70;99.90
32640;DHT22;19049;52.524;11.468;2023-07-29T12:54:13;23.40;99.90
32640;DHT22;19049;52.524;11.468;2023-07-29T12:56:39;22.40;99.90
32640;DHT22;19049;52.524;11.468;2023-07-29T13:03:57;24.10;99.90
32640;DHT22;19049;52.524;11.468;2023-07-29T13:06:23;23.00;99.90
32640;DHT22;19049;52.524;11.468;2023-07-29T13:08:49;24.00;99.90
32640;DHT22;19049;52.524;11.468;2023-07-29T13:11:16;24.10;99.90
32640;DHT22;19049;52.524;11.468;2023-07-29T13:13:42;24.70;99.90
32640;DHT22;19049;52.524;11.468;2023-07-29T13:16:07;24.20;99.90
32640;DHT22;19049;52.524;11.468;2023-07-29T13:18:33;24.50;99.90
32640;DHT22;19049;52.524;11.468;2023-07-29T13:20:59;24.30;99.90
32640;DHT22;19049;52.524;11.468;2023-07-29T13:23:28;23.90;99.90
32640;DHT22;19049;52.524;11.468;2023-07-29T13:25:55;23.80;99.90
32640;DHT22;19049;52.524;11.468;2023-07-29T13:28:21;23.70;99.90
32640;DHT22;19049;52.524;11.468;2023-07-29T13:30:46;23.50;99.90
32640;DHT22;19049;52.524;11.468;2023-07-29T13:33:12;23.40;99.90
32640;DHT22;19049;52.524;11.468;2023-07-29T13:35:38;23.30;99.90
32640;DHT22;19049;52.524;11.468;2023-07-29T13:38:04;23.10;99.90
32640;DHT22;19049;52.524;11.468;2023-07-29T13:40:29;23.10;99.90
32640;DHT22;19049;52.524;11.468;2023-07-29T13:42:55;23.00;99.90
32640;DHT22;19049;52.524;11.468;2023-07-29T13:45:21;23.00;99.90
32640;DHT22;19049;52.524;11.468;2023-07-29T13:47:48;23.00;99.90
32640;DHT22;19049;52.524;11.468;2023-07-29T13:50:13;23.00;99.90
32640;DHT22;19049;52.524;11.468;2023-07-29T13:52:39;23.00;99.90
32640;DHT22;19049;52.524;11.468;2023-07-29T13:55:05;23.10;99.90
32640;DHT22;19049;52.524;11.468;2023-07-29T13:57:32;23.00;99.90
32640;DHT22;19049;52.524;11.468;2023-07-29T13:59:58;23.00;99.90
32640;DHT22;19049;52.524;11.468;2023-07-29T14:02:24;23.00;99.90
32640;DHT22;19049;52.524;11.468;2023-07-29T14:04:51;23.00;99.90
32640;DHT22;19049;52.524;11.468;2023-07-29T14:07:17;22.90;99.90
32640;DHT22;19049;52.524;11.468;2023-07-29T14:14:38;22.90;99.90
32640;DHT22;19049;52.524;11.468;2023-07-29T14:17:04;23.20;99.90
32640;DHT22;19049;52.524;11.468;2023-07-29T14:19:30;22.30;99.90
32640;DHT22;19049;52.524;11.468;2023-07-29T14:24:22;23.50;99.90
32640;DHT22;19049;52.524;11.468;2023-07-29T14:26:48;23.10;99.90
32640;DHT22;19049;52.524;11.468;2023-07-29T14:29:13;22.50;99.90
32640;DHT22;19049;52.524;11.468;2023-07-29T14:31:39;23.50;99.90
32640;DHT22;19049;52.524;11.468;2023-07-29T14:34:05;22.80;99.90
32640;DHT22;19049;52.524;11.468;2023-07-29T14:36:30;22.90;99.90
32640;DHT22;19049;52.524;11.468;2023-07-29T14:38:56;22.90;99.90
32640;DHT22;19049;52.524;11.468;2023-07-29T14:41:22;22.60;99.90
32640;DHT22;19049;52.524;11.468;2023-07-29T14:43:47;23.30;99.90
32640;DHT22;19049;52.524;11.468;2023-07-29T14:53:31;24.60;99.90
32640;DHT22;19049;52.524;11.468;2023-07-29T14:58:23;26.00;99.90
32640;DHT22;19049;52.524;11.468;2023-07-29T15:00:51;26.60;99.90
32640;DHT22;19049;52.524;11.468;2023-07-29T15:03:17;26.30;99.90
32640;DHT22;19049;52.524;11.468;2023-07-29T15:05:42;26.70;99.90
32640;DHT22;19049;52.524;11.468;2023-07-29T15:08:08;27.10;99.90
32640;DHT22;19049;52.524;11.468;2023-07-29T15:10:34;27.20;99.90
32640;DHT22;19049;52.524;11.468;2023-07-29T15:13:00;27.60;99.90
32640;DHT22;19049;52.524;11.468;2023-07-29T15:15:25;28.40;99.90
32640;DHT22;19049;52.524;11.468;2023-07-29T15:17:51;27.80;99.90
32640;DHT22;19049;52.524;11.468;2023-07-29T15:20:17;28.30;99.90
32640;DHT22;19049;52.524;11.468;2023-07-29T15:22:42;28.30;99.90
32640;DHT22;19049;52.524;11.468;2023-07-29T15:25:09;29.40;99.90
32640;DHT22;19049;52.524;11.468;2023-07-29T15:30:01;29.00;99.90
32640;DHT22;19049;52.524;11.468;2023-07-29T15:32:27;29.20;99.90
32640;DHT22;19049;52.524;11.468;2023-07-29T15:34:53;29.40;99.90
32640;DHT22;19049;52.524;11.468;2023-07-29T15:37:19;29.60;99.90
32640;DHT22;19049;52.524;11.468;2023-07-29T15:39:45;29.80;99.90
32640;DHT22;19049;52.524;11.468;2023-07-29T15:42:10;29.90;99.90
32640;DHT22;19049;52.524;11.468;2023-07-29T15:44:36;29.90;99.90
32640;DHT22;19049;52.524;11.468;2023-07-29T15:47:03;29.90;99.90
32640;DHT22;19049;52.524;11.468;2023-07-29T15:49:28;29.90;99.90
32640;DHT22;19049;52.524;11.468;2023-07-29T15:51:54;29.30;99.90
32640;DHT22;19049;52.524;11.468;2023-07-29T15:54:20;30.00;99.90
32640;DHT22;19049;52.524;11.468;2023-07-29T15:56:45;30.10;99.90
32640;DHT22;19049;52.524;11.468;2023-07-29T15:59:11;30.10;99.90
32640;DHT22;19049;52.524;11.468;2023-07-29T16:01:37;30.20;99.90
32640;DHT22;19049;52.524;11.468;2023-07-29T16:04:02;29.50;99.90
32640;DHT22;19049;52.524;11.468;2023-07-29T16:06:28;30.30;99.90
32640;DHT22;19049;52.524;11.468;2023-07-29T16:08:55;30.20;99.60
32640;DHT22;19049;52.524;11.468;2023-07-29T16:11:20;30.10;98.20
32640;DHT22;19049;52.524;11.468;2023-07-29T16:13:46;30.10;98.90
32640;DHT22;19049;52.524;11.468;2023-07-29T16:16:12;30.00;97.10
32640;DHT22;19049;52.524;11.468;2023-07-29T16:18:37;29.90;97.60
32640;DHT22;19049;52.524;11.468;2023-07-29T16:21:03;29.90;97.70
32640;DHT22;19049;52.524;11.468;2023-07-29T16:23:30;29.90;97.50
32640;DHT22;19049;52.524;11.468;2023-07-29T16:25:56;29.80;98.10
32640;DHT22;19049;52.524;11.468;2023-07-29T16:28:22;29.80;98.10
32640;DHT22;19049;52.524;11.468;2023-07-29T16:30:48;29.90;98.00
32640;DHT22;19049;52.524;11.468;2023-07-29T16:33:13;29.90;97.70
32640;DHT22;19049;52.524;11.468;2023-07-29T16:35:39;30.00;99.90
32640;DHT22;19049;52.524;11.468;2023-07-29T16:38:05;29.90;97.00
32640;DHT22;19049;52.524;11.468;2023-07-29T16:40:32;29.90;96.70
32640;DHT22;19049;52.524;11.468;2023-07-29T16:42:57;29.90;96.80
32640;DHT22;19049;52.524;11.468;2023-07-29T16:45:23;29.90;97.30
32640;DHT22;19049;52.524;11.468;2023-07-29T16:47:49;29.90;98.20
32640;DHT22;19049;52.524;11.468;2023-07-29T16:50:15;29.90;97.30
32640;DHT22;19049;52.524;11.468;2023-07-29T16:52:40;29.90;97.40
32640;DHT22;19049;52.524;11.468;2023-07-29T16:55:08;29.90;96.70
32640;DHT22;19049;52.524;11.468;2023-07-29T16:57:34;29.90;96.60
32640;DHT22;19049;52.524;11.468;2023-07-29T16:59:59;29.90;97.00
32640;DHT22;19049;52.524;11.468;2023-07-29T17:02:25;29.90;94.40
32640;DHT22;19049;52.524;11.468;2023-07-29T17:04:51;29.80;94.70
32640;DHT22;19049;52.524;11.468;2023-07-29T17:07:16;29.70;94.80
32640;DHT22;19049;52.524;11.468;2023-07-29T17:09:43;29.60;96.20
32640;DHT22;19049;52.524;11.468;2023-07-29T17:12:11;29.60;96.70
32640;DHT22;19049;52.524;11.468;2023-07-29T17:14:37;29.60;96.70
32640;DHT22;19049;52.524;11.468;2023-07-29T17:17:03;29.60;97.40
32640;DHT22;19049;52.524;11.468;2023-07-29T17:19:29;29.60;96.60
32640;DHT22;19049;52.524;11.468;2023-07-29T17:21:54;29.60;97.60
32640;DHT22;19049;52.524;11.468;2023-07-29T17:24:20;29.60;98.30
32640;DHT22;19049;52.524;11.468;2023-07-29T17:26:45;29.60;97.10
32640;DHT22;19049;52.524;11.468;2023-07-29T17:29:11;30.10;99.90
32640;DHT22;19049;52.524;11.468;2023-07-29T17:31:37;29.60;99.00
32640;DHT22;19049;52.524;11.468;2023-07-29T17:34:02;29.40;99.90
32640;DHT22;19049;52.524;11.468;2023-07-29T17:36:29;29.60;99.10
32640;DHT22;19049;52.524;11.468;2023-07-29T17:38:55;29.70;99.10
32640;DHT22;19049;52.524;11.468;2023-07-29T17:41:20;30.00;99.90
32640;DHT22;19049;52.524;11.468;2023-07-29T17:46:14;28.70;99.90
32640;DHT22;19049;52.524;11.468;2023-07-29T17:48:43;29.20;98.00
32640;DHT22;19049;52.524;11.468;2023-07-29T17:51:09;28.60;99.90
32640;DHT22;19049;52.524;11.468;2023-07-29T17:56:00;28.30;99.90
32640;DHT22;19049;52.524;11.468;2023-07-29T17:58:26;26.90;99.90
32640;DHT22;19049;52.524;11.468;2023-07-29T18:00:52;27.50;98.80
32640;DHT22;19049;52.524;11.468;2023-07-29T18:03:18;27.10;99.90